Nepomuceno, Brazil
Current Conditions -  °F | °C
As of 4:00 PM on Friday 24 Oct 2014 (Local Time) from SBBQ Reporting Station
Scattered Clouds Scattered Clouds  
Wind Chill: 77°   Ceiling: Unl
Heat Index: 79°   Visibility: 6mi
Dew Point: 57°   Wind: 12mph
Humidity: 50%   Direction: 90°E
Pressure: 30.09"   Gusts: NA
Location:  21.24°S, 45.24°W
Report Text: SBBQ 241800Z 09010KT 9999 SCT040 FEW050TCU 25/14 Q1019
Loading
Personal Weather Stations






























Interactive Weather Map
Tropical Storm Tracking
New forecast layout! Learn more

10-Day Weather Forecast

Advertisements
Track Severe Weather on mobile